Weedon, Canada
Current Conditions -  °F | °C
As of 8:00 PM on Saturday 22 Nov 2014 (Local Time) from CYSC Reporting Station
Light Snow Light Snow  
Wind Chill: 23°   Ceiling: 1500
Heat Index: 30°   Visibility: 3mi
Dew Point: 28°   Wind: 8mph
Humidity: 93%   Direction: 220°SW
Pressure: 29.89"   Gusts: NA
Location:  45.7°N, 71.45°W
Report Text: CYSC 230100Z AUTO 22007KT 3SM -SN FEW008 OVC015 M01/M02 A2989 RMK SLP134
Loading
Personal Weather Stations






























Interactive Weather Map New forecast layout! Learn more

10-Day Weather Forecast

Advertisements
Track Severe Weather on mobile